sensor_id;sensor_type;location;lat;lon;timestamp;pressure;altitude;pressure_sealevel;temperature;humidity
29197;BME280;62796;42.654;23.316;2024-03-23T00:53:07;94646.56;;;8.58;44.78
29197;BME280;62796;42.654;23.316;2024-03-23T00:55:32;94643.63;;;8.61;44.99
29197;BME280;62796;42.654;23.316;2024-03-23T00:57:57;94640.41;;;8.63;44.52
29197;BME280;62796;42.654;23.316;2024-03-23T01:00:23;94643.34;;;8.59;44.26
29197;BME280;62796;42.654;23.316;2024-03-23T01:02:48;94635.06;;;8.59;44.05
29197;BME280;62796;42.654;23.316;2024-03-23T01:05:14;94632.75;;;8.58;44.04
29197;BME280;62796;42.654;23.316;2024-03-23T01:07:39;94642.84;;;8.61;43.90
29197;BME280;62796;42.654;23.316;2024-03-23T01:10:05;94635.34;;;8.61;43.98
29197;BME280;62796;42.654;23.316;2024-03-23T01:12:30;94629.53;;;8.59;44.27
29197;BME280;62796;42.654;23.316;2024-03-23T01:14:56;94632.34;;;8.50;44.43
29197;BME280;62796;42.654;23.316;2024-03-23T01:17:21;94625.13;;;8.53;44.49
29197;BME280;62796;42.654;23.316;2024-03-23T01:19:46;94629.31;;;8.48;44.70
29197;BME280;62796;42.654;23.316;2024-03-23T01:22:12;94629.66;;;8.41;45.04
29197;BME280;62796;42.654;23.316;2024-03-23T01:24:37;94633.94;;;8.42;45.00
29197;BME280;62796;42.654;23.316;2024-03-23T01:27:03;94626.59;;;8.39;44.82
29197;BME280;62796;42.654;23.316;2024-03-23T01:29:29;94631.69;;;8.31;44.77
29197;BME280;62796;42.654;23.316;2024-03-23T01:31:54;94623.44;;;8.22;44.74
29197;BME280;62796;42.654;23.316;2024-03-23T01:34:19;94629.41;;;8.30;44.69
29197;BME280;62796;42.654;23.316;2024-03-23T01:36:46;94625.91;;;8.20;44.72
29197;BME280;62796;42.654;23.316;2024-03-23T01:39:12;94636.63;;;8.18;44.82
29197;BME280;62796;42.654;23.316;2024-03-23T01:41:38;94630.53;;;8.14;45.39
29197;BME280;62796;42.654;23.316;2024-03-23T01:44:07;94633.88;;;8.18;45.06
29197;BME280;62796;42.654;23.316;2024-03-23T01:46:33;94636.50;;;8.13;44.92
29197;BME280;62796;42.654;23.316;2024-03-23T01:48:59;94632.53;;;8.14;45.02
29197;BME280;62796;42.654;23.316;2024-03-23T01:51:25;94629.00;;;8.13;44.36
29197;BME280;62796;42.654;23.316;2024-03-23T01:53:51;94635.00;;;8.12;44.37
29197;BME280;62796;42.654;23.316;2024-03-23T01:56:18;94632.09;;;8.06;44.60
29197;BME280;62796;42.654;23.316;2024-03-23T01:58:43;94628.25;;;8.04;44.74
29197;BME280;62796;42.654;23.316;2024-03-23T02:01:09;94639.78;;;8.02;44.48
29197;BME280;62796;42.654;23.316;2024-03-23T02:03:34;94633.78;;;8.04;44.42
29197;BME280;62796;42.654;23.316;2024-03-23T02:06:00;94635.47;;;8.01;44.34
29197;BME280;62796;42.654;23.316;2024-03-23T02:08:25;94637.34;;;7.95;44.56
29197;BME280;62796;42.654;23.316;2024-03-23T02:10:51;94636.28;;;7.93;44.30
29197;BME280;62796;42.654;23.316;2024-03-23T02:13:18;94634.63;;;7.86;43.67
29197;BME280;62796;42.654;23.316;2024-03-23T02:15:44;94639.56;;;7.82;43.84
29197;BME280;62796;42.654;23.316;2024-03-23T02:18:10;94635.72;;;7.79;44.27
29197;BME280;62796;42.654;23.316;2024-03-23T02:20:36;94636.47;;;7.80;44.58
29197;BME280;62796;42.654;23.316;2024-03-23T02:23:02;94641.72;;;7.78;44.88
29197;BME280;62796;42.654;23.316;2024-03-23T02:25:28;94649.06;;;7.81;45.18
29197;BME280;62796;42.654;23.316;2024-03-23T02:27:53;94644.44;;;7.87;45.52
29197;BME280;62796;42.654;23.316;2024-03-23T02:30:24;94641.69;;;7.87;45.25
29197;BME280;62796;42.654;23.316;2024-03-23T02:32:49;94645.50;;;7.90;44.42
29197;BME280;62796;42.654;23.316;2024-03-23T02:35:14;94647.19;;;7.87;44.37
29197;BME280;62796;42.654;23.316;2024-03-23T02:37:40;94636.84;;;7.73;44.49
29197;BME280;62796;42.654;23.316;2024-03-23T02:40:05;94645.72;;;7.68;44.81
29197;BME280;62796;42.654;23.316;2024-03-23T02:42:31;94631.03;;;7.62;45.18
29197;BME280;62796;42.654;23.316;2024-03-23T02:44:57;94637.00;;;7.60;44.95
29197;BME280;62796;42.654;23.316;2024-03-23T02:47:23;94645.28;;;7.60;45.08
29197;BME280;62796;42.654;23.316;2024-03-23T02:49:48;94639.00;;;7.60;45.23
29197;BME280;62796;42.654;23.316;2024-03-23T02:52:14;94639.63;;;7.64;45.38
29197;BME280;62796;42.654;23.316;2024-03-23T02:54:39;94635.03;;;7.61;45.29
29197;BME280;62796;42.654;23.316;2024-03-23T02:57:07;94636.25;;;7.60;45.40
29197;BME280;62796;42.654;23.316;2024-03-23T02:59:32;94631.03;;;7.62;45.47
29197;BME280;62796;42.654;23.316;2024-03-23T03:01:58;94628.91;;;7.57;45.24
29197;BME280;62796;42.654;23.316;2024-03-23T03:04:25;94628.28;;;7.62;44.81
29197;BME280;62796;42.654;23.316;2024-03-23T03:06:50;94616.53;;;7.52;44.79
29197;BME280;62796;42.654;23.316;2024-03-23T03:09:15;94627.38;;;7.56;44.72
29197;BME280;62796;42.654;23.316;2024-03-23T03:11:41;94637.47;;;7.59;44.46
29197;BME280;62796;42.654;23.316;2024-03-23T03:14:06;94632.88;;;7.56;44.35
29197;BME280;62796;42.654;23.316;2024-03-23T03:16:33;94634.91;;;7.55;44.61
29197;BME280;62796;42.654;23.316;2024-03-23T03:18:58;94636.88;;;7.55;44.46
29197;BME280;62796;42.654;23.316;2024-03-23T03:21:24;94634.44;;;7.48;44.19
29197;BME280;62796;42.654;23.316;2024-03-23T03:23:49;94635.66;;;7.47;44.37
29197;BME280;62796;42.654;23.316;2024-03-23T03:26:18;94635.38;;;7.45;44.40
29197;BME280;62796;42.654;23.316;2024-03-23T03:28:43;94645.47;;;7.39;44.47
29197;BME280;62796;42.654;23.316;2024-03-23T03:31:23;94635.38;;;7.36;44.77
29197;BME280;62796;42.654;23.316;2024-03-23T03:33:49;94629.28;;;7.32;44.86
29197;BME280;62796;42.654;23.316;2024-03-23T03:36:14;94636.00;;;7.40;44.94
29197;BME280;62796;42.654;23.316;2024-03-23T03:38:40;94636.91;;;7.37;44.77
29197;BME280;62796;42.654;23.316;2024-03-23T03:41:05;94643.66;;;7.27;44.76
29197;BME280;62796;42.654;23.316;2024-03-23T03:43:31;94643.81;;;7.23;45.43
29197;BME280;62796;42.654;23.316;2024-03-23T03:45:58;94641.06;;;7.23;45.28
29197;BME280;62796;42.654;23.316;2024-03-23T03:48:24;94639.06;;;7.23;45.48
29197;BME280;62796;42.654;23.316;2024-03-23T03:50:49;94640.91;;;7.17;45.67
29197;BME280;62796;42.654;23.316;2024-03-23T03:53:15;94635.41;;;7.17;45.43
29197;BME280;62796;42.654;23.316;2024-03-23T03:55:41;94627.78;;;7.12;45.26
29197;BME280;62796;42.654;23.316;2024-03-23T03:58:06;94645.06;;;7.13;45.40
29197;BME280;62796;42.654;23.316;2024-03-23T04:00:32;94643.53;;;7.12;45.75
29197;BME280;62796;42.654;23.316;2024-03-23T04:02:57;94651.63;;;7.06;45.60
29197;BME280;62796;42.654;23.316;2024-03-23T04:05:23;94640.63;;;7.06;45.73
29197;BME280;62796;42.654;23.316;2024-03-23T04:07:48;94648.59;;;7.04;45.95
29197;BME280;62796;42.654;23.316;2024-03-23T04:10:14;94643.66;;;7.08;46.24
29197;BME280;62796;42.654;23.316;2024-03-23T04:12:43;94644.59;;;7.05;46.18
29197;BME280;62796;42.654;23.316;2024-03-23T04:15:09;94647.19;;;7.00;46.26
29197;BME280;62796;42.654;23.316;2024-03-23T04:17:34;94648.88;;;6.97;46.18
29197;BME280;62796;42.654;23.316;2024-03-23T04:20:01;94642.47;;;7.00;46.33
29197;BME280;62796;42.654;23.316;2024-03-23T04:22:27;94647.06;;;7.03;46.60
29197;BME280;62796;42.654;23.316;2024-03-23T04:24:53;94651.34;;;7.04;46.68
29197;BME280;62796;42.654;23.316;2024-03-23T04:27:18;94646.13;;;7.06;46.84
29197;BME280;62796;42.654;23.316;2024-03-23T04:29:47;94652.25;;;7.10;46.39
29197;BME280;62796;42.654;23.316;2024-03-23T04:32:13;94655.16;;;7.16;46.22
29197;BME280;62796;42.654;23.316;2024-03-23T04:34:39;94654.38;;;7.15;45.94
29197;BME280;62796;42.654;23.316;2024-03-23T04:37:04;94650.44;;;7.07;46.17
29197;BME280;62796;42.654;23.316;2024-03-23T04:39:30;94656.53;;;7.02;46.64
29197;BME280;62796;42.654;23.316;2024-03-23T04:41:55;94658.69;;;7.07;46.45
29197;BME280;62796;42.654;23.316;2024-03-23T04:44:21;94660.97;;;7.00;46.16
29197;BME280;62796;42.654;23.316;2024-03-23T04:46:46;94663.56;;;7.03;46.60
29197;BME280;62796;42.654;23.316;2024-03-23T04:49:12;94653.19;;;6.89;46.60
29197;BME280;62796;42.654;23.316;2024-03-23T04:51:37;94664.19;;;6.98;46.96
29197;BME280;62796;42.654;23.316;2024-03-23T04:54:04;94671.69;;;6.98;46.92
29197;BME280;62796;42.654;23.316;2024-03-23T04:56:30;94667.69;;;7.08;46.75
29197;BME280;62796;42.654;23.316;2024-03-23T04:58:56;94656.84;;;7.13;46.63
29197;BME280;62796;42.654;23.316;2024-03-23T05:01:26;94665.69;;;7.27;46.64
29197;BME280;62796;42.654;23.316;2024-03-23T05:03:52;94670.00;;;7.28;46.58
29197;BME280;62796;42.654;23.316;2024-03-23T05:06:18;94671.97;;;7.36;46.52
29197;BME280;62796;42.654;23.316;2024-03-23T05:08:43;94664.75;;;7.48;46.41
29197;BME280;62796;42.654;23.316;2024-03-23T05:11:09;94669.97;;;7.55;46.66
29197;BME280;62796;42.654;23.316;2024-03-23T05:13:35;94669.94;;;7.64;46.72
29197;BME280;62796;42.654;23.316;2024-03-23T05:16:00;94667.59;;;7.71;46.61
29197;BME280;62796;42.654;23.316;2024-03-23T05:18:26;94664.81;;;7.80;46.57
29197;BME280;62796;42.654;23.316;2024-03-23T05:20:57;94654.25;;;7.88;46.38
29197;BME280;62796;42.654;23.316;2024-03-23T05:23:25;94659.84;;;8.03;46.29
29197;BME280;62796;42.654;23.316;2024-03-23T05:25:51;94661.66;;;8.15;45.79
29197;BME280;62796;42.654;23.316;2024-03-23T05:28:17;94657.47;;;8.28;45.51
29197;BME280;62796;42.654;23.316;2024-03-23T05:30:43;94651.00;;;8.31;45.37
29197;BME280;62796;42.654;23.316;2024-03-23T05:33:09;94661.84;;;8.44;45.44
29197;BME280;62796;42.654;23.316;2024-03-23T05:35:34;94658.69;;;8.51;45.12
29197;BME280;62796;42.654;23.316;2024-03-23T05:37:59;94641.69;;;8.53;45.08
29197;BME280;62796;42.654;23.316;2024-03-23T05:40:26;94660.72;;;8.74;44.70
29197;BME280;62796;42.654;23.316;2024-03-23T05:42:51;94643.91;;;8.87;44.23
29197;BME280;62796;42.654;23.316;2024-03-23T05:45:21;94655.13;;;9.07;43.62
29197;BME280;62796;42.654;23.316;2024-03-23T05:47:48;94643.31;;;9.21;42.75
29197;BME280;62796;42.654;23.316;2024-03-23T05:50:13;94658.31;;;9.44;42.52
29197;BME280;62796;42.654;23.316;2024-03-23T05:52:39;94661.75;;;9.54;42.26
29197;BME280;62796;42.654;23.316;2024-03-23T05:55:05;94641.34;;;9.66;41.90
29197;BME280;62796;42.654;23.316;2024-03-23T05:57:30;94661.09;;;9.88;41.59
29197;BME280;62796;42.654;23.316;2024-03-23T05:59:56;94656.41;;;10.09;40.98
29197;BME280;62796;42.654;23.316;2024-03-23T06:02:22;94654.50;;;10.29;40.55
29197;BME280;62796;42.654;23.316;2024-03-23T06:04:48;94662.44;;;10.57;39.56
29197;BME280;62796;42.654;23.316;2024-03-23T06:07:13;94649.00;;;10.70;39.21
29197;BME280;62796;42.654;23.316;2024-03-23T06:09:40;94647.66;;;10.80;39.32
29197;BME280;62796;42.654;23.316;2024-03-23T06:12:06;94656.53;;;11.04;39.11
29197;BME280;62796;42.654;23.316;2024-03-23T06:14:31;94644.38;;;11.22;38.33
29197;BME280;62796;42.654;23.316;2024-03-23T06:16:58;94645.81;;;11.37;38.32
29197;BME280;62796;42.654;23.316;2024-03-23T06:19:24;94639.19;;;11.55;37.65
29197;BME280;62796;42.654;23.316;2024-03-23T06:21:52;94641.03;;;11.63;37.70
29197;BME280;62796;42.654;23.316;2024-03-23T06:24:17;94647.53;;;11.81;37.61
29197;BME280;62796;42.654;23.316;2024-03-23T06:26:43;94650.28;;;12.06;36.99
29197;BME280;62796;42.654;23.316;2024-03-23T06:29:08;94639.31;;;12.23;36.60
29197;BME280;62796;42.654;23.316;2024-03-23T06:31:34;94649.84;;;12.50;35.83
29197;BME280;62796;42.654;23.316;2024-03-23T06:33:59;94641.91;;;12.74;35.48
29197;BME280;62796;42.654;23.316;2024-03-23T06:36:25;94648.78;;;12.42;35.67
29197;BME280;62796;42.654;23.316;2024-03-23T06:38:50;94634.69;;;12.14;36.15
29197;BME280;62796;42.654;23.316;2024-03-23T06:41:16;94656.16;;;12.14;36.33
29197;BME280;62796;42.654;23.316;2024-03-23T06:43:43;94643.81;;;12.57;36.17
29197;BME280;62796;42.654;23.316;2024-03-23T06:46:08;94649.66;;;13.02;34.95
29197;BME280;62796;42.654;23.316;2024-03-23T06:48:34;94654.84;;;13.31;34.60
29197;BME280;62796;42.654;23.316;2024-03-23T06:50:59;94632.63;;;13.53;34.25
29197;BME280;62796;42.654;23.316;2024-03-23T06:53:24;94642.81;;;13.78;33.41
29197;BME280;62796;42.654;23.316;2024-03-23T06:55:51;94646.66;;;14.03;32.80
29197;BME280;62796;42.654;23.316;2024-03-23T06:58:21;94641.06;;;14.20;32.62
29197;BME280;62796;42.654;23.316;2024-03-23T07:00:46;94643.91;;;14.36;32.03
29197;BME280;62796;42.654;23.316;2024-03-23T07:03:12;94643.84;;;14.64;32.17
29197;BME280;62796;42.654;23.316;2024-03-23T07:05:37;94635.69;;;14.88;31.24
29197;BME280;62796;42.654;23.316;2024-03-23T07:08:03;94633.59;;;15.06;31.10
29197;BME280;62796;42.654;23.316;2024-03-23T07:10:28;94630.22;;;15.29;30.84
29197;BME280;62796;42.654;23.316;2024-03-23T07:12:54;94629.03;;;15.14;30.30
29197;BME280;62796;42.654;23.316;2024-03-23T07:15:19;94627.16;;;15.33;30.24
29197;BME280;62796;42.654;23.316;2024-03-23T07:17:47;94625.28;;;15.58;29.84
29197;BME280;62796;42.654;23.316;2024-03-23T07:20:13;94626.88;;;15.88;29.59
29197;BME280;62796;42.654;23.316;2024-03-23T07:22:38;94622.41;;;16.10;29.04
29197;BME280;62796;42.654;23.316;2024-03-23T07:25:05;94612.31;;;16.31;28.40
29197;BME280;62796;42.654;23.316;2024-03-23T07:27:31;94627.38;;;16.57;28.08
29197;BME280;62796;42.654;23.316;2024-03-23T07:29:56;94622.53;;;16.82;27.36
29197;BME280;62796;42.654;23.316;2024-03-23T07:32:22;94619.75;;;17.06;26.77
29197;BME280;62796;42.654;23.316;2024-03-23T07:34:47;94616.06;;;17.36;27.11
29197;BME280;62796;42.654;23.316;2024-03-23T07:37:13;94610.78;;;17.51;26.81
29197;BME280;62796;42.654;23.316;2024-03-23T07:39:42;94609.00;;;17.72;25.08
29197;BME280;62796;42.654;23.316;2024-03-23T07:42:07;94607.56;;;17.84;25.31
29197;BME280;62796;42.654;23.316;2024-03-23T07:44:33;94608.53;;;18.05;25.48
29197;BME280;62796;42.654;23.316;2024-03-23T07:47:00;94605.78;;;18.18;25.03
29197;BME280;62796;42.654;23.316;2024-03-23T07:49:25;94594.56;;;18.18;24.55
29197;BME280;62796;42.654;23.316;2024-03-23T07:51:51;94606.63;;;18.45;24.56
29197;BME280;62796;42.654;23.316;2024-03-23T07:54:16;94601.41;;;18.68;23.99
29197;BME280;62796;42.654;23.316;2024-03-23T07:56:41;94602.41;;;18.84;23.67
29197;BME280;62796;42.654;23.316;2024-03-23T07:59:07;94595.16;;;18.88;23.61
29197;BME280;62796;42.654;23.316;2024-03-23T08:01:32;94601.22;;;19.05;23.62
29197;BME280;62796;42.654;23.316;2024-03-23T08:03:58;94592.38;;;19.14;23.07
29197;BME280;62796;42.654;23.316;2024-03-23T08:06:23;94595.16;;;19.01;23.41
29197;BME280;62796;42.654;23.316;2024-03-23T08:08:51;94597.81;;;18.67;24.30
29197;BME280;62796;42.654;23.316;2024-03-23T08:11:28;94594.72;;;18.97;23.88
29197;BME280;62796;42.654;23.316;2024-03-23T08:13:54;94598.41;;;19.31;23.94
29197;BME280;62796;42.654;23.316;2024-03-23T08:16:19;94593.41;;;19.64;23.61
29197;BME280;62796;42.654;23.316;2024-03-23T08:18:45;94592.00;;;19.57;23.65
29197;BME280;62796;42.654;23.316;2024-03-23T08:21:10;94590.13;;;19.86;22.83
29197;BME280;62796;42.654;23.316;2024-03-23T08:23:36;94590.81;;;20.00;22.59
29197;BME280;62796;42.654;23.316;2024-03-23T08:26:08;94584.25;;;20.18;22.52
29197;BME280;62796;42.654;23.316;2024-03-23T08:28:35;94591.34;;;19.98;22.63
29197;BME280;62796;42.654;23.316;2024-03-23T08:31:02;94585.13;;;19.92;22.78
29197;BME280;62796;42.654;23.316;2024-03-23T08:33:28;94579.41;;;19.84;23.09
29197;BME280;62796;42.654;23.316;2024-03-23T08:35:58;94577.88;;;19.83;23.27
29197;BME280;62796;42.654;23.316;2024-03-23T08:38:24;94576.19;;;20.01;22.74
29197;BME280;62796;42.654;23.316;2024-03-23T08:40:57;94573.19;;;19.99;22.89
29197;BME280;62796;42.654;23.316;2024-03-23T08:43:23;94572.06;;;20.36;22.37
29197;BME280;62796;42.654;23.316;2024-03-23T08:45:49;94568.34;;;20.62;22.21
29197;BME280;62796;42.654;23.316;2024-03-23T08:48:14;94567.66;;;20.97;21.71
29197;BME280;62796;42.654;23.316;2024-03-23T08:50:39;94560.34;;;21.22;21.04
29197;BME280;62796;42.654;23.316;2024-03-23T08:53:05;94561.44;;;21.19;21.09
29197;BME280;62796;42.654;23.316;2024-03-23T08:55:30;94556.19;;;20.95;21.33
29197;BME280;62796;42.654;23.316;2024-03-23T08:57:56;94551.56;;;20.77;21.18
29197;BME280;62796;42.654;23.316;2024-03-23T09:00:21;94553.69;;;20.84;21.17
29197;BME280;62796;42.654;23.316;2024-03-23T09:02:47;94545.84;;;20.90;21.17
29197;BME280;62796;42.654;23.316;2024-03-23T09:05:13;94546.41;;;20.88;21.63
29197;BME280;62796;42.654;23.316;2024-03-23T09:07:38;94535.91;;;21.17;20.56
29197;BME280;62796;42.654;23.316;2024-03-23T09:10:04;94537.34;;;21.46;20.53
29197;BME280;62796;42.654;23.316;2024-03-23T09:12:30;94524.09;;;21.70;20.05
29197;BME280;62796;42.654;23.316;2024-03-23T09:14:55;94527.56;;;21.98;20.00
29197;BME280;62796;42.654;23.316;2024-03-23T09:17:20;94519.34;;;22.23;19.90
29197;BME280;62796;42.654;23.316;2024-03-23T09:19:46;94521.59;;;22.32;19.47
29197;BME280;62796;42.654;23.316;2024-03-23T09:22:11;94518.22;;;22.26;19.59
29197;BME280;62796;42.654;23.316;2024-03-23T09:24:38;94513.41;;;21.83;19.52
29197;BME280;62796;42.654;23.316;2024-03-23T09:27:04;94506.56;;;20.49;21.10
29197;BME280;62796;42.654;23.316;2024-03-23T09:29:29;94510.69;;;20.55;21.39
29197;BME280;62796;42.654;23.316;2024-03-23T09:31:55;94494.59;;;21.20;20.60
29197;BME280;62796;42.654;23.316;2024-03-23T09:34:20;94500.72;;;21.46;20.62
29197;BME280;62796;42.654;23.316;2024-03-23T09:36:47;94489.63;;;22.07;19.95
29197;BME280;62796;42.654;23.316;2024-03-23T09:39:12;94491.13;;;22.53;19.80
29197;BME280;62796;42.654;23.316;2024-03-23T09:41:39;94482.84;;;22.78;19.57
29197;BME280;62796;42.654;23.316;2024-03-23T09:44:04;94483.13;;;23.20;18.71
29197;BME280;62796;42.654;23.316;2024-03-23T09:46:31;94481.28;;;23.55;17.95
29197;BME280;62796;42.654;23.316;2024-03-23T09:48:59;94467.03;;;23.78;17.87
29197;BME280;62796;42.654;23.316;2024-03-23T09:51:25;94465.06;;;23.95;17.73
29197;BME280;62796;42.654;23.316;2024-03-23T09:53:51;94460.81;;;24.11;17.81
29197;BME280;62796;42.654;23.316;2024-03-23T09:56:17;94454.63;;;24.30;17.25
29197;BME280;62796;42.654;23.316;2024-03-23T09:58:43;94455.19;;;24.53;17.24
29197;BME280;62796;42.654;23.316;2024-03-23T10:01:08;94450.88;;;24.69;17.36
29197;BME280;62796;42.654;23.316;2024-03-23T10:03:46;94441.78;;;24.29;16.90
29197;BME280;62796;42.654;23.316;2024-03-23T10:06:12;94440.84;;;24.51;16.55
29197;BME280;62796;42.654;23.316;2024-03-23T10:08:37;94435.53;;;24.55;17.03
29197;BME280;62796;42.654;23.316;2024-03-23T10:11:16;94441.00;;;24.95;16.89
29197;BME280;62796;42.654;23.316;2024-03-23T10:13:43;94436.94;;;25.06;16.50
29197;BME280;62796;42.654;23.316;2024-03-23T10:16:09;94431.06;;;25.21;16.19
29197;BME280;62796;42.654;23.316;2024-03-23T10:18:39;94428.56;;;25.25;16.63
29197;BME280;62796;42.654;23.316;2024-03-23T10:21:10;94434.22;;;24.73;16.97
29197;BME280;62796;42.654;23.316;2024-03-23T10:23:41;94421.25;;;25.05;16.65
29197;BME280;62796;42.654;23.316;2024-03-23T10:28:59;94412.72;;;25.56;15.45
29197;BME280;62796;42.654;23.316;2024-03-23T10:31:36;94400.06;;;24.54;16.09
29197;BME280;62796;42.654;23.316;2024-03-23T10:34:05;94402.75;;;24.69;16.26
29197;BME280;62796;42.654;23.316;2024-03-23T10:36:30;94405.66;;;25.13;16.62
29197;BME280;62796;42.654;23.316;2024-03-23T10:38:56;94397.13;;;24.45;16.84
29197;BME280;62796;42.654;23.316;2024-03-23T10:41:28;94391.72;;;24.39;16.33
29197;BME280;62796;42.654;23.316;2024-03-23T10:43:57;94377.34;;;24.20;16.81
29197;BME280;62796;42.654;23.316;2024-03-23T10:46:23;94365.31;;;23.62;17.26
29197;BME280;62796;42.654;23.316;2024-03-23T10:48:49;94369.16;;;24.07;17.19
29197;BME280;62796;42.654;23.316;2024-03-23T10:51:15;94366.19;;;24.81;17.00
29197;BME280;62796;42.654;23.316;2024-03-23T10:53:41;94359.94;;;25.00;16.45
29197;BME280;62796;42.654;23.316;2024-03-23T10:56:07;94358.38;;;25.60;15.21
29197;BME280;62796;42.654;23.316;2024-03-23T10:58:42;94348.44;;;25.68;15.21
29197;BME280;62796;42.654;23.316;2024-03-23T11:01:12;94335.50;;;26.21;14.52
29197;BME280;62796;42.654;23.316;2024-03-23T11:03:39;94338.25;;;26.57;14.18
29197;BME280;62796;42.654;23.316;2024-03-23T11:06:06;94321.94;;;26.77;13.73
29197;BME280;62796;42.654;23.316;2024-03-23T11:08:33;94319.56;;;27.02;13.73
29197;BME280;62796;42.654;23.316;2024-03-23T11:11:18;94314.69;;;25.72;14.00
29197;BME280;62796;42.654;23.316;2024-03-23T11:13:44;94317.53;;;25.19;14.38
29197;BME280;62796;42.654;23.316;2024-03-23T11:16:14;94313.38;;;25.20;14.86
29197;BME280;62796;42.654;23.316;2024-03-23T11:18:39;94300.38;;;25.70;14.89
29197;BME280;62796;42.654;23.316;2024-03-23T11:21:07;94289.63;;;26.15;14.45
29197;BME280;62796;42.654;23.316;2024-03-23T11:23:32;94296.34;;;26.29;14.63
29197;BME280;62796;42.654;23.316;2024-03-23T11:25:57;94293.97;;;26.45;14.05
29197;BME280;62796;42.654;23.316;2024-03-23T11:28:23;94295.34;;;26.72;13.92
29197;BME280;62796;42.654;23.316;2024-03-23T11:30:48;94279.03;;;26.44;14.16
29197;BME280;62796;42.654;23.316;2024-03-23T11:33:14;94283.66;;;26.78;13.38
29197;BME280;62796;42.654;23.316;2024-03-23T11:35:42;94269.75;;;27.11;13.41
29197;BME280;62796;42.654;23.316;2024-03-23T11:38:14;94282.97;;;27.46;13.15
29197;BME280;62796;42.654;23.316;2024-03-23T11:40:42;94264.81;;;27.61;13.07
29197;BME280;62796;42.654;23.316;2024-03-23T11:43:09;94256.63;;;27.86;13.05
29197;BME280;62796;42.654;23.316;2024-03-23T11:45:44;94259.31;;;27.84;13.21
29197;BME280;62796;42.654;23.316;2024-03-23T11:48:13;94251.84;;;27.39;12.62
29197;BME280;62796;42.654;23.316;2024-03-23T11:50:44;94249.00;;;27.39;13.51
29197;BME280;62796;42.654;23.316;2024-03-23T11:53:14;94238.91;;;27.57;12.79
29197;BME280;62796;42.654;23.316;2024-03-23T11:55:53;94232.25;;;27.74;13.12
29197;BME280;62796;42.654;23.316;2024-03-23T11:58:20;94226.94;;;27.89;13.22
29197;BME280;62796;42.654;23.316;2024-03-23T12:00:52;94220.38;;;28.08;13.09
29197;BME280;62796;42.654;23.316;2024-03-23T12:03:18;94218.56;;;28.34;12.59
29197;BME280;62796;42.654;23.316;2024-03-23T12:05:50;94217.44;;;28.60;12.54
29197;BME280;62796;42.654;23.316;2024-03-23T12:08:31;94211.09;;;28.83;12.19
29197;BME280;62796;42.654;23.316;2024-03-23T12:11:13;94199.53;;;29.14;12.41
29197;BME280;62796;42.654;23.316;2024-03-23T12:13:40;94200.34;;;29.49;12.21
29197;BME280;62796;42.654;23.316;2024-03-23T12:16:17;94196.22;;;29.75;11.61
29197;BME280;62796;42.654;23.316;2024-03-23T12:18:43;94186.06;;;29.95;11.50
29197;BME280;62796;42.654;23.316;2024-03-23T12:21:09;94176.00;;;29.94;11.48
29197;BME280;62796;42.654;23.316;2024-03-23T12:23:35;94174.50;;;29.93;11.22
29197;BME280;62796;42.654;23.316;2024-03-23T12:26:01;94177.97;;;30.03;11.44
29197;BME280;62796;42.654;23.316;2024-03-23T12:28:27;94177.69;;;30.23;10.97
29197;BME280;62796;42.654;23.316;2024-03-23T12:30:52;94173.59;;;30.14;11.14
29197;BME280;62796;42.654;23.316;2024-03-23T12:33:19;94161.81;;;30.20;11.24
29197;BME280;62796;42.654;23.316;2024-03-23T12:35:44;94165.75;;;30.26;10.63
29197;BME280;62796;42.654;23.316;2024-03-23T12:38:10;94156.78;;;30.32;10.98
29197;BME280;62796;42.654;23.316;2024-03-23T12:40:35;94158.50;;;30.37;10.50
29197;BME280;62796;42.654;23.316;2024-03-23T12:43:01;94152.31;;;30.29;9.96
29197;BME280;62796;42.654;23.316;2024-03-23T12:45:26;94151.56;;;30.40;10.25
29197;BME280;62796;42.654;23.316;2024-03-23T12:47:52;94151.47;;;30.63;9.54
29197;BME280;62796;42.654;23.316;2024-03-23T12:50:20;94148.19;;;30.68;9.70
29197;BME280;62796;42.654;23.316;2024-03-23T12:52:46;94136.50;;;30.76;8.63
29197;BME280;62796;42.654;23.316;2024-03-23T12:55:12;94122.81;;;30.75;9.68
29197;BME280;62796;42.654;23.316;2024-03-23T12:57:38;94128.84;;;30.67;9.84
29197;BME280;62796;42.654;23.316;2024-03-23T13:00:04;94123.56;;;30.75;9.54
29197;BME280;62796;42.654;23.316;2024-03-23T13:02:30;94118.25;;;30.95;9.81
29197;BME280;62796;42.654;23.316;2024-03-23T13:04:55;94115.44;;;31.22;9.51
29197;BME280;62796;42.654;23.316;2024-03-23T13:07:22;94119.03;;;31.22;8.70
29197;BME280;62796;42.654;23.316;2024-03-23T13:09:51;94110.13;;;31.16;7.24
29197;BME280;62796;42.654;23.316;2024-03-23T13:12:17;94103.03;;;31.17;8.17
29197;BME280;62796;42.654;23.316;2024-03-23T13:14:44;94101.66;;;31.46;7.85
29197;BME280;62796;42.654;23.316;2024-03-23T13:17:10;94104.66;;;31.48;7.27
29197;BME280;62796;42.654;23.316;2024-03-23T13:19:35;94086.94;;;31.78;7.44
29197;BME280;62796;42.654;23.316;2024-03-23T13:22:01;94082.91;;;31.97;7.71
29197;BME280;62796;42.654;23.316;2024-03-23T13:24:30;94068.53;;;32.24;7.30
29197;BME280;62796;42.654;23.316;2024-03-23T13:26:56;94064.38;;;31.71;7.29
29197;BME280;62796;42.654;23.316;2024-03-23T13:29:22;94076.34;;;30.74;7.58
29197;BME280;62796;42.654;23.316;2024-03-23T13:31:48;94069.97;;;29.17;7.99
29197;BME280;62796;42.654;23.316;2024-03-23T13:34:14;94074.97;;;28.04;8.85
29197;BME280;62796;42.654;23.316;2024-03-23T13:36:45;94077.78;;;28.81;8.25
29197;BME280;62796;42.654;23.316;2024-03-23T13:39:11;94071.09;;;29.12;7.94
29197;BME280;62796;42.654;23.316;2024-03-23T13:44:04;94064.81;;;28.45;8.91
29197;BME280;62796;42.654;23.316;2024-03-23T13:46:29;94053.38;;;29.25;8.84
29197;BME280;62796;42.654;23.316;2024-03-23T13:48:55;94057.72;;;29.26;8.34